sensor_id;sensor_type;location;lat;lon;timestamp;pressure;altitude;pressure_sealevel;temperature;humidity
75505;BME280;64085;54.974;73.410;2023-03-01T00:00:39;98899.91;;;3.88;64.89
75505;BME280;64085;54.974;73.410;2023-03-01T00:03:05;98889.41;;;3.78;64.29
75505;BME280;64085;54.974;73.410;2023-03-01T00:05:30;98897.28;;;3.67;64.80
75505;BME280;64085;54.974;73.410;2023-03-01T00:07:57;98888.38;;;3.83;64.54
75505;BME280;64085;54.974;73.410;2023-03-01T00:10:23;98895.63;;;4.15;64.54
75505;BME280;64085;54.974;73.410;2023-03-01T00:12:49;98880.44;;;4.18;63.81
75505;BME280;64085;54.974;73.410;2023-03-01T00:15:14;98871.97;;;3.83;64.48
75505;BME280;64085;54.974;73.410;2023-03-01T00:17:40;98885.81;;;4.14;63.90
75505;BME280;64085;54.974;73.410;2023-03-01T00:20:06;98884.31;;;4.17;64.31
75505;BME280;64085;54.974;73.410;2023-03-01T00:22:36;98887.22;;;4.36;63.90
75505;BME280;64085;54.974;73.410;2023-03-01T00:25:02;98875.31;;;4.16;64.02
75505;BME280;64085;54.974;73.410;2023-03-01T00:27:28;98879.00;;;4.08;64.41
75505;BME280;64085;54.974;73.410;2023-03-01T00:29:54;98872.81;;;4.23;63.56
75505;BME280;64085;54.974;73.410;2023-03-01T00:32:20;98852.22;;;4.02;63.50
75505;BME280;64085;54.974;73.410;2023-03-01T00:34:45;98881.38;;;4.22;63.71
75505;BME280;64085;54.974;73.410;2023-03-01T00:37:23;98875.19;;;3.73;64.43
75505;BME280;64085;54.974;73.410;2023-03-01T00:39:49;98870.75;;;3.80;64.11
75505;BME280;64085;54.974;73.410;2023-03-01T00:42:16;98878.16;;;3.80;64.71
75505;BME280;64085;54.974;73.410;2023-03-01T00:44:42;98871.34;;;4.14;64.15
75505;BME280;64085;54.974;73.410;2023-03-01T00:47:08;98870.56;;;4.01;64.62
75505;BME280;64085;54.974;73.410;2023-03-01T00:49:35;98869.69;;;3.97;64.45
75505;BME280;64085;54.974;73.410;2023-03-01T00:52:00;98812.59;;;3.43;64.58
75505;BME280;64085;54.974;73.410;2023-03-01T00:54:26;98868.94;;;3.72;64.79
75505;BME280;64085;54.974;73.410;2023-03-01T00:56:52;98875.28;;;3.88;65.11
75505;BME280;64085;54.974;73.410;2023-03-01T00:59:17;98872.16;;;4.02;65.63
75505;BME280;64085;54.974;73.410;2023-03-01T01:01:43;98850.69;;;3.88;65.05
75505;BME280;64085;54.974;73.410;2023-03-01T01:04:11;98841.50;;;4.09;63.80
75505;BME280;64085;54.974;73.410;2023-03-01T01:06:39;98861.16;;;4.27;64.47
75505;BME280;64085;54.974;73.410;2023-03-01T01:09:08;98855.47;;;3.79;65.05
75505;BME280;64085;54.974;73.410;2023-03-01T01:11:35;98865.59;;;3.91;65.28
75505;BME280;64085;54.974;73.410;2023-03-01T01:14:02;98829.13;;;3.99;65.11
75505;BME280;64085;54.974;73.410;2023-03-01T01:16:28;98847.03;;;3.97;64.76
75505;BME280;64085;54.974;73.410;2023-03-01T01:18:55;98843.78;;;4.07;65.11
75505;BME280;64085;54.974;73.410;2023-03-01T01:21:23;98831.47;;;3.73;64.78
75505;BME280;64085;54.974;73.410;2023-03-01T01:23:49;98853.06;;;3.78;64.91
75505;BME280;64085;54.974;73.410;2023-03-01T01:26:23;98860.78;;;4.00;64.98
75505;BME280;64085;54.974;73.410;2023-03-01T01:28:50;98852.81;;;3.95;65.33
75505;BME280;64085;54.974;73.410;2023-03-01T01:31:17;98844.75;;;3.86;64.69
75505;BME280;64085;54.974;73.410;2023-03-01T01:33:43;98862.63;;;3.96;64.94
75505;BME280;64085;54.974;73.410;2023-03-01T01:36:09;98833.25;;;3.81;65.05
75505;BME280;64085;54.974;73.410;2023-03-01T01:38:36;98842.47;;;3.88;65.35
75505;BME280;64085;54.974;73.410;2023-03-01T01:41:02;98852.28;;;4.30;65.11
75505;BME280;64085;54.974;73.410;2023-03-01T01:43:48;98847.91;;;4.01;64.78
75505;BME280;64085;54.974;73.410;2023-03-01T01:46:32;98832.84;;;4.35;64.86
75505;BME280;64085;54.974;73.410;2023-03-01T01:49:02;98828.88;;;4.04;65.27
75505;BME280;64085;54.974;73.410;2023-03-01T01:51:33;98820.00;;;3.95;65.53
75505;BME280;64085;54.974;73.410;2023-03-01T01:54:09;98834.44;;;4.36;64.76
75505;BME280;64085;54.974;73.410;2023-03-01T01:56:37;98838.06;;;4.12;63.81
75505;BME280;64085;54.974;73.410;2023-03-01T01:59:04;98832.16;;;4.10;64.70
75505;BME280;64085;54.974;73.410;2023-03-01T02:01:30;98822.13;;;4.42;64.36
75505;BME280;64085;54.974;73.410;2023-03-01T02:03:56;98808.97;;;4.19;64.19
75505;BME280;64085;54.974;73.410;2023-03-01T02:06:27;98826.25;;;4.36;63.85
75505;BME280;64085;54.974;73.410;2023-03-01T02:08:57;98811.25;;;4.30;64.24
75505;BME280;64085;54.974;73.410;2023-03-01T02:11:24;98810.78;;;4.00;64.90
75505;BME280;64085;54.974;73.410;2023-03-01T02:13:52;98802.44;;;4.08;65.32
75505;BME280;64085;54.974;73.410;2023-03-01T02:16:19;98819.41;;;4.14;65.50
75505;BME280;64085;54.974;73.410;2023-03-01T02:18:45;98826.03;;;4.29;65.63
75505;BME280;64085;54.974;73.410;2023-03-01T02:21:52;98805.66;;;4.26;64.59
75505;BME280;64085;54.974;73.410;2023-03-01T02:26:55;98805.47;;;4.47;65.50
75505;BME280;64085;54.974;73.410;2023-03-01T02:29:22;98819.84;;;4.60;64.98
75505;BME280;64085;54.974;73.410;2023-03-01T02:31:49;98816.25;;;4.28;65.71
75505;BME280;64085;54.974;73.410;2023-03-01T02:34:23;98798.84;;;4.20;65.11
75505;BME280;64085;54.974;73.410;2023-03-01T02:36:57;98813.06;;;4.26;65.16
75505;BME280;64085;54.974;73.410;2023-03-01T02:39:30;98793.38;;;4.20;65.24
75505;BME280;64085;54.974;73.410;2023-03-01T02:41:57;98818.66;;;4.45;64.50
75505;BME280;64085;54.974;73.410;2023-03-01T02:44:24;98805.16;;;4.36;64.79
75505;BME280;64085;54.974;73.410;2023-03-01T02:46:52;98812.00;;;4.58;64.64
75505;BME280;64085;54.974;73.410;2023-03-01T02:49:23;98796.59;;;4.82;64.42
75505;BME280;64085;54.974;73.410;2023-03-01T02:51:56;98807.31;;;4.59;64.76
75505;BME280;64085;54.974;73.410;2023-03-01T02:54:38;98798.00;;;4.91;64.10
75505;BME280;64085;54.974;73.410;2023-03-01T02:57:05;98795.34;;;4.95;64.01
75505;BME280;64085;54.974;73.410;2023-03-01T02:59:34;98784.84;;;4.81;63.24
75505;BME280;64085;54.974;73.410;2023-03-01T03:02:05;98784.22;;;4.88;64.00
75505;BME280;64085;54.974;73.410;2023-03-01T03:04:31;98779.31;;;4.49;64.87
75505;BME280;64085;54.974;73.410;2023-03-01T03:06:57;98786.94;;;5.03;64.40
75505;BME280;64085;54.974;73.410;2023-03-01T03:09:23;98789.25;;;4.86;64.86
75505;BME280;64085;54.974;73.410;2023-03-01T03:11:48;98773.44;;;4.79;64.92
75505;BME280;64085;54.974;73.410;2023-03-01T03:14:16;98786.97;;;4.72;65.15
75505;BME280;64085;54.974;73.410;2023-03-01T03:16:43;98781.03;;;4.86;66.14
75505;BME280;64085;54.974;73.410;2023-03-01T03:19:10;98780.31;;;4.57;65.89
75505;BME280;64085;54.974;73.410;2023-03-01T03:21:36;98757.00;;;4.79;65.90
75505;BME280;64085;54.974;73.410;2023-03-01T03:24:01;98770.97;;;4.90;65.85
75505;BME280;64085;54.974;73.410;2023-03-01T03:26:28;98767.09;;;5.06;65.50
75505;BME280;64085;54.974;73.410;2023-03-01T03:28:53;98770.19;;;5.05;65.09
75505;BME280;64085;54.974;73.410;2023-03-01T03:31:19;98775.38;;;5.61;64.80
75505;BME280;64085;54.974;73.410;2023-03-01T03:33:45;98757.94;;;5.34;64.69
75505;BME280;64085;54.974;73.410;2023-03-01T03:36:19;98774.22;;;5.11;63.90
75505;BME280;64085;54.974;73.410;2023-03-01T03:38:45;98760.88;;;4.94;64.96
75505;BME280;64085;54.974;73.410;2023-03-01T03:41:11;98766.09;;;5.15;65.72
75505;BME280;64085;54.974;73.410;2023-03-01T03:43:39;98763.81;;;5.01;64.87
75505;BME280;64085;54.974;73.410;2023-03-01T03:46:05;98764.69;;;4.73;65.30
75505;BME280;64085;54.974;73.410;2023-03-01T03:48:33;98750.72;;;5.10;65.03
75505;BME280;64085;54.974;73.410;2023-03-01T03:51:00;98746.56;;;5.16;65.76
75505;BME280;64085;54.974;73.410;2023-03-01T03:53:27;98747.00;;;5.18;65.10
75505;BME280;64085;54.974;73.410;2023-03-01T03:55:54;98759.28;;;5.08;65.55
75505;BME280;64085;54.974;73.410;2023-03-01T03:58:22;98753.97;;;5.31;65.12
75505;BME280;64085;54.974;73.410;2023-03-01T04:00:51;98754.06;;;5.03;65.59
75505;BME280;64085;54.974;73.410;2023-03-01T04:03:18;98740.91;;;5.09;65.38
75505;BME280;64085;54.974;73.410;2023-03-01T04:05:46;98747.44;;;5.20;65.28
75505;BME280;64085;54.974;73.410;2023-03-01T04:08:12;98733.22;;;5.15;65.46
75505;BME280;64085;54.974;73.410;2023-03-01T04:10:41;98735.88;;;5.11;65.55
75505;BME280;64085;54.974;73.410;2023-03-01T04:13:11;98731.59;;;5.29;65.14
75505;BME280;64085;54.974;73.410;2023-03-01T04:15:37;98730.56;;;5.18;65.33
75505;BME280;64085;54.974;73.410;2023-03-01T04:18:03;98739.41;;;4.96;65.98
75505;BME280;64085;54.974;73.410;2023-03-01T04:20:31;98732.22;;;5.39;65.43
75505;BME280;64085;54.974;73.410;2023-03-01T04:23:09;98713.75;;;5.20;65.09
75505;BME280;64085;54.974;73.410;2023-03-01T04:25:55;98723.91;;;5.54;64.39
75505;BME280;64085;54.974;73.410;2023-03-01T04:28:26;98696.22;;;5.59;64.71
75505;BME280;64085;54.974;73.410;2023-03-01T04:30:53;98706.47;;;5.08;64.78
75505;BME280;64085;54.974;73.410;2023-03-01T04:33:20;98657.09;;;5.04;65.05
75505;BME280;64085;54.974;73.410;2023-03-01T04:35:47;98704.13;;;5.26;65.60
75505;BME280;64085;54.974;73.410;2023-03-01T04:38:15;98712.09;;;5.15;66.03
75505;BME280;64085;54.974;73.410;2023-03-01T04:40:41;98702.28;;;5.30;66.35
75505;BME280;64085;54.974;73.410;2023-03-01T04:43:09;98706.78;;;5.22;65.59
75505;BME280;64085;54.974;73.410;2023-03-01T04:45:35;98698.34;;;4.96;66.18
75505;BME280;64085;54.974;73.410;2023-03-01T04:48:02;98696.31;;;4.93;66.50
75505;BME280;64085;54.974;73.410;2023-03-01T04:50:28;98693.03;;;5.03;66.74
75505;BME280;64085;54.974;73.410;2023-03-01T04:52:54;98688.22;;;4.96;67.12
75505;BME280;64085;54.974;73.410;2023-03-01T04:55:19;98677.41;;;5.03;66.87
75505;BME280;64085;54.974;73.410;2023-03-01T04:57:45;98689.00;;;4.97;67.53
75505;BME280;64085;54.974;73.410;2023-03-01T05:00:12;98684.31;;;4.97;67.78
75505;BME280;64085;54.974;73.410;2023-03-01T05:03:00;98684.00;;;5.18;67.70
75505;BME280;64085;54.974;73.410;2023-03-01T05:05:46;98678.25;;;4.88;67.95
75505;BME280;64085;54.974;73.410;2023-03-01T05:08:12;98686.84;;;5.06;68.20
75505;BME280;64085;54.974;73.410;2023-03-01T05:10:45;98670.22;;;5.15;67.27
75505;BME280;64085;54.974;73.410;2023-03-01T05:13:12;98656.22;;;5.20;66.98
75505;BME280;64085;54.974;73.410;2023-03-01T05:15:39;98643.56;;;5.31;67.32
75505;BME280;64085;54.974;73.410;2023-03-01T05:18:05;98665.34;;;5.43;66.87
75505;BME280;64085;54.974;73.410;2023-03-01T05:20:37;98664.25;;;5.28;67.00
75505;BME280;64085;54.974;73.410;2023-03-01T05:23:03;98626.31;;;5.11;66.94
75505;BME280;64085;54.974;73.410;2023-03-01T05:25:34;98680.41;;;5.33;67.21
75505;BME280;64085;54.974;73.410;2023-03-01T05:28:01;98682.94;;;5.42;67.32
75505;BME280;64085;54.974;73.410;2023-03-01T05:30:30;98656.34;;;4.88;67.62
75505;BME280;64085;54.974;73.410;2023-03-01T05:32:55;98662.13;;;5.02;67.96
75505;BME280;64085;54.974;73.410;2023-03-01T05:35:21;98617.59;;;5.25;67.08
75505;BME280;64085;54.974;73.410;2023-03-01T05:37:48;98663.22;;;4.82;68.36
75505;BME280;64085;54.974;73.410;2023-03-01T05:40:17;98654.78;;;5.06;69.13
75505;BME280;64085;54.974;73.410;2023-03-01T05:42:44;98664.50;;;5.04;72.05
75505;BME280;64085;54.974;73.410;2023-03-01T05:45:10;98620.84;;;4.76;73.29
75505;BME280;64085;54.974;73.410;2023-03-01T05:47:41;98665.41;;;4.92;73.25
75505;BME280;64085;54.974;73.410;2023-03-01T05:50:11;98661.81;;;4.88;73.11
75505;BME280;64085;54.974;73.410;2023-03-01T05:52:38;98658.16;;;5.00;72.44
75505;BME280;64085;54.974;73.410;2023-03-01T05:55:04;98655.66;;;5.11;72.41
75505;BME280;64085;54.974;73.410;2023-03-01T05:57:30;98640.56;;;5.01;72.03
75505;BME280;64085;54.974;73.410;2023-03-01T05:59:55;98660.53;;;5.01;72.22
75505;BME280;64085;54.974;73.410;2023-03-01T06:02:21;98659.47;;;5.06;72.20
75505;BME280;64085;54.974;73.410;2023-03-01T06:04:46;98651.06;;;5.15;71.84
75505;BME280;64085;54.974;73.410;2023-03-01T06:07:12;98654.25;;;5.01;72.25
75505;BME280;64085;54.974;73.410;2023-03-01T06:09:38;98665.19;;;5.36;72.74
75505;BME280;64085;54.974;73.410;2023-03-01T06:12:03;98650.59;;;5.13;72.72
75505;BME280;64085;54.974;73.410;2023-03-01T06:14:31;98654.72;;;4.87;72.72
75505;BME280;64085;54.974;73.410;2023-03-01T06:16:57;98645.44;;;5.27;71.77
75505;BME280;64085;54.974;73.410;2023-03-01T06:19:23;98648.00;;;5.20;72.67
75505;BME280;64085;54.974;73.410;2023-03-01T06:21:49;98639.78;;;5.00;72.66
75505;BME280;64085;54.974;73.410;2023-03-01T06:24:14;98652.81;;;4.72;73.22
75505;BME280;64085;54.974;73.410;2023-03-01T06:26:41;98657.19;;;4.92;73.33
75505;BME280;64085;54.974;73.410;2023-03-01T06:29:07;98646.19;;;4.73;73.17
75505;BME280;64085;54.974;73.410;2023-03-01T06:31:34;98643.66;;;4.48;73.10
75505;BME280;64085;54.974;73.410;2023-03-01T06:33:59;98646.09;;;4.69;73.14
75505;BME280;64085;54.974;73.410;2023-03-01T06:36:25;98636.59;;;4.98;73.16
75505;BME280;64085;54.974;73.410;2023-03-01T06:38:51;98642.50;;;4.65;73.18
75505;BME280;64085;54.974;73.410;2023-03-01T06:41:16;98661.72;;;4.85;73.24
75505;BME280;64085;54.974;73.410;2023-03-01T06:43:42;98655.84;;;5.02;72.53
75505;BME280;64085;54.974;73.410;2023-03-01T06:46:07;98666.91;;;5.25;72.96
75505;BME280;64085;54.974;73.410;2023-03-01T06:48:34;98646.78;;;5.17;72.18
75505;BME280;64085;54.974;73.410;2023-03-01T06:51:00;98651.00;;;4.95;73.00
75505;BME280;64085;54.974;73.410;2023-03-01T06:53:29;98650.69;;;5.16;72.84
75505;BME280;64085;54.974;73.410;2023-03-01T06:55:57;98651.41;;;5.13;72.43
75505;BME280;64085;54.974;73.410;2023-03-01T06:58:24;98656.41;;;5.27;72.29
75505;BME280;64085;54.974;73.410;2023-03-01T07:00:51;98643.13;;;4.94;72.26
75505;BME280;64085;54.974;73.410;2023-03-01T17:48:51;98053.03;;;4.73;70.46
75505;BME280;64085;54.974;73.410;2023-03-01T17:51:17;98070.22;;;5.04;70.65
75505;BME280;64085;54.974;73.410;2023-03-01T17:53:43;98058.91;;;4.75;71.12
75505;BME280;64085;54.974;73.410;2023-03-01T17:56:08;98053.09;;;5.11;71.23
75505;BME280;64085;54.974;73.410;2023-03-01T17:58:34;98030.94;;;4.89;71.63
75505;BME280;64085;54.974;73.410;2023-03-01T18:01:15;98044.38;;;5.01;71.02
75505;BME280;64085;54.974;73.410;2023-03-01T18:03:42;98056.66;;;4.81;71.04
75505;BME280;64085;54.974;73.410;2023-03-01T18:06:13;98034.88;;;4.92;70.02
75505;BME280;64085;54.974;73.410;2023-03-01T18:08:38;98043.00;;;5.15;71.43
75505;BME280;64085;54.974;73.410;2023-03-01T18:11:04;98028.00;;;5.05;70.53
75505;BME280;64085;54.974;73.410;2023-03-01T18:13:30;98048.44;;;4.81;70.67
75505;BME280;64085;54.974;73.410;2023-03-01T18:15:55;98034.56;;;4.70;71.46
75505;BME280;64085;54.974;73.410;2023-03-01T18:18:27;98049.22;;;4.82;70.76
75505;BME280;64085;54.974;73.410;2023-03-01T18:21:00;98050.09;;;4.89;71.18
75505;BME280;64085;54.974;73.410;2023-03-01T18:23:27;98031.22;;;4.80;71.57
75505;BME280;64085;54.974;73.410;2023-03-01T18:25:59;98028.72;;;4.98;72.08
75505;BME280;64085;54.974;73.410;2023-03-01T18:28:26;98029.00;;;4.90;70.68
75505;BME280;64085;54.974;73.410;2023-03-01T18:31:00;98018.81;;;4.90;71.38
75505;BME280;64085;54.974;73.410;2023-03-01T18:33:28;98003.03;;;5.10;70.85
75505;BME280;64085;54.974;73.410;2023-03-01T18:35:54;97999.78;;;5.01;70.37
75505;BME280;64085;54.974;73.410;2023-03-01T18:38:20;98019.25;;;5.26;70.68
75505;BME280;64085;54.974;73.410;2023-03-01T18:40:45;98034.69;;;4.77;70.82
75505;BME280;64085;54.974;73.410;2023-03-01T18:43:12;98052.00;;;4.85;70.78
75505;BME280;64085;54.974;73.410;2023-03-01T18:45:37;98061.28;;;5.07;70.34
75505;BME280;64085;54.974;73.410;2023-03-01T18:48:04;98040.06;;;5.00;70.18
75505;BME280;64085;54.974;73.410;2023-03-01T18:50:30;98027.91;;;4.68;71.03
75505;BME280;64085;54.974;73.410;2023-03-01T18:52:57;98045.78;;;4.88;71.00
75505;BME280;64085;54.974;73.410;2023-03-01T18:55:23;98039.59;;;4.65;70.26
75505;BME280;64085;54.974;73.410;2023-03-01T18:57:48;98044.84;;;4.77;70.67
75505;BME280;64085;54.974;73.410;2023-03-01T19:00:14;98046.41;;;4.78;71.50
75505;BME280;64085;54.974;73.410;2023-03-01T19:02:40;98022.41;;;4.38;70.29
75505;BME280;64085;54.974;73.410;2023-03-01T19:05:06;98040.28;;;4.58;70.84
75505;BME280;64085;54.974;73.410;2023-03-01T19:07:32;98022.78;;;4.63;70.72
75505;BME280;64085;54.974;73.410;2023-03-01T19:09:58;98022.41;;;4.64;70.36
75505;BME280;64085;54.974;73.410;2023-03-01T19:12:24;97991.31;;;4.23;70.20
75505;BME280;64085;54.974;73.410;2023-03-01T19:14:52;98003.31;;;4.41;70.46
75505;BME280;64085;54.974;73.410;2023-03-01T19:17:21;98027.56;;;4.43;70.56
75505;BME280;64085;54.974;73.410;2023-03-01T19:19:46;97989.97;;;4.66;70.11
75505;BME280;64085;54.974;73.410;2023-03-01T19:22:14;97989.59;;;4.38;69.80
75505;BME280;64085;54.974;73.410;2023-03-01T19:24:39;98005.25;;;4.41;70.12
75505;BME280;64085;54.974;73.410;2023-03-01T19:27:05;97992.31;;;4.38;69.65
75505;BME280;64085;54.974;73.410;2023-03-01T19:29:31;97996.63;;;4.39;70.07
75505;BME280;64085;54.974;73.410;2023-03-01T19:31:56;97986.16;;;4.44;69.67
75505;BME280;64085;54.974;73.410;2023-03-01T19:34:22;97980.53;;;4.94;70.54
75505;BME280;64085;54.974;73.410;2023-03-01T19:36:49;97994.56;;;4.89;69.67
75505;BME280;64085;54.974;73.410;2023-03-01T19:39:15;97984.91;;;4.98;70.54
75505;BME280;64085;54.974;73.410;2023-03-01T19:41:42;97999.38;;;4.69;69.94
75505;BME280;64085;54.974;73.410;2023-03-01T19:44:08;97987.38;;;4.77;69.60
75505;BME280;64085;54.974;73.410;2023-03-01T19:46:34;97988.25;;;4.85;70.58
75505;BME280;64085;54.974;73.410;2023-03-01T19:49:00;97999.34;;;4.65;69.22
75505;BME280;64085;54.974;73.410;2023-03-01T19:51:28;97970.66;;;4.86;70.06
75505;BME280;64085;54.974;73.410;2023-03-01T19:53:54;97996.94;;;4.94;69.13
75505;BME280;64085;54.974;73.410;2023-03-01T19:56:20;97997.16;;;4.78;69.21
75505;BME280;64085;54.974;73.410;2023-03-01T19:58:46;97948.50;;;4.64;70.27
75505;BME280;64085;54.974;73.410;2023-03-01T20:01:19;97994.84;;;4.80;69.09
75505;BME280;64085;54.974;73.410;2023-03-01T20:03:45;97983.56;;;4.85;69.99
75505;BME280;64085;54.974;73.410;2023-03-01T20:06:14;97981.50;;;4.78;69.76
75505;BME280;64085;54.974;73.410;2023-03-01T20:08:40;97941.78;;;4.58;69.98
75505;BME280;64085;54.974;73.410;2023-03-01T20:11:08;97918.59;;;4.48;69.94
75505;BME280;64085;54.974;73.410;2023-03-01T20:13:35;97968.84;;;4.63;70.46
75505;BME280;64085;54.974;73.410;2023-03-01T20:16:02;97946.50;;;4.61;70.49
75505;BME280;64085;54.974;73.410;2023-03-01T20:18:28;97960.97;;;4.92;70.95
75505;BME280;64085;54.974;73.410;2023-03-01T20:20:54;97955.66;;;4.72;70.08
75505;BME280;64085;54.974;73.410;2023-03-01T20:23:20;97936.13;;;4.77;70.06
75505;BME280;64085;54.974;73.410;2023-03-01T20:25:46;97943.19;;;4.78;70.21
75505;BME280;64085;54.974;73.410;2023-03-01T20:28:17;97946.28;;;4.73;69.76
75505;BME280;64085;54.974;73.410;2023-03-01T20:30:44;97951.25;;;4.64;69.90
75505;BME280;64085;54.974;73.410;2023-03-01T20:33:09;97947.34;;;4.65;69.94
75505;BME280;64085;54.974;73.410;2023-03-01T20:35:35;97917.19;;;4.62;69.80
75505;BME280;64085;54.974;73.410;2023-03-01T20:38:02;97927.06;;;4.70;70.17
75505;BME280;64085;54.974;73.410;2023-03-01T20:40:29;97883.03;;;4.18;70.49
75505;BME280;64085;54.974;73.410;2023-03-01T20:42:58;97909.81;;;4.66;69.79
75505;BME280;64085;54.974;73.410;2023-03-01T20:45:24;97899.38;;;4.75;69.99
75505;BME280;64085;54.974;73.410;2023-03-01T20:47:50;97880.88;;;4.65;69.93
75505;BME280;64085;54.974;73.410;2023-03-01T20:50:17;97908.34;;;4.72;69.98
75505;BME280;64085;54.974;73.410;2023-03-01T20:52:43;97912.78;;;4.53;69.68
75505;BME280;64085;54.974;73.410;2023-03-01T20:55:09;97913.94;;;4.86;70.08
75505;BME280;64085;54.974;73.410;2023-03-01T20:57:35;97893.22;;;4.51;70.33
75505;BME280;64085;54.974;73.410;2023-03-01T21:00:02;97919.00;;;4.80;70.37
75505;BME280;64085;54.974;73.410;2023-03-01T21:02:28;97887.59;;;4.37;69.57
75505;BME280;64085;54.974;73.410;2023-03-01T21:04:54;97916.84;;;4.63;69.93
75505;BME280;64085;54.974;73.410;2023-03-01T21:07:19;97911.47;;;4.74;69.89
75505;BME280;64085;54.974;73.410;2023-03-01T21:09:45;97917.44;;;4.49;69.39
75505;BME280;64085;54.974;73.410;2023-03-01T21:12:11;97907.66;;;4.82;69.68
75505;BME280;64085;54.974;73.410;2023-03-01T21:14:37;97907.25;;;4.80;69.32
75505;BME280;64085;54.974;73.410;2023-03-01T21:17:13;97886.16;;;4.47;69.63
75505;BME280;64085;54.974;73.410;2023-03-01T21:19:41;97871.81;;;4.57;69.46
75505;BME280;64085;54.974;73.410;2023-03-01T21:22:11;97849.25;;;4.34;69.36
75505;BME280;64085;54.974;73.410;2023-03-01T21:24:37;97882.94;;;4.41;69.71
75505;BME280;64085;54.974;73.410;2023-03-01T21:27:03;97887.97;;;4.69;69.17
75505;BME280;64085;54.974;73.410;2023-03-01T21:29:39;97894.25;;;4.40;69.10
75505;BME280;64085;54.974;73.410;2023-03-01T21:32:06;97896.91;;;4.63;68.29
75505;BME280;64085;54.974;73.410;2023-03-01T21:34:33;97881.09;;;4.49;68.82
75505;BME280;64085;54.974;73.410;2023-03-01T21:36:59;97888.63;;;4.59;68.08
75505;BME280;64085;54.974;73.410;2023-03-01T21:39:26;97899.09;;;4.87;68.80
75505;BME280;64085;54.974;73.410;2023-03-01T21:41:57;97894.19;;;5.03;69.20
75505;BME280;64085;54.974;73.410;2023-03-01T21:44:25;97884.19;;;4.81;67.71
75505;BME280;64085;54.974;73.410;2023-03-01T21:46:51;97793.78;;;4.37;67.33
75505;BME280;64085;54.974;73.410;2023-03-01T21:49:17;97876.25;;;5.06;67.65
75505;BME280;64085;54.974;73.410;2023-03-01T21:51:43;97856.59;;;4.97;68.10
75505;BME280;64085;54.974;73.410;2023-03-01T21:54:13;97872.34;;;5.11;67.17
75505;BME280;64085;54.974;73.410;2023-03-01T21:56:40;97860.38;;;4.51;66.69
75505;BME280;64085;54.974;73.410;2023-03-01T21:59:20;97855.13;;;4.69;66.78
75505;BME280;64085;54.974;73.410;2023-03-01T22:01:47;97856.13;;;4.88;66.53
75505;BME280;64085;54.974;73.410;2023-03-01T22:04:14;97871.25;;;5.19;66.21
75505;BME280;64085;54.974;73.410;2023-03-01T22:06:42;97882.72;;;4.91;66.17
75505;BME280;64085;54.974;73.410;2023-03-01T22:09:18;97878.34;;;5.23;68.64
75505;BME280;64085;54.974;73.410;2023-03-01T22:11:45;97879.34;;;5.04;67.36
75505;BME280;64085;54.974;73.410;2023-03-01T22:14:11;97825.41;;;4.68;66.86
75505;BME280;64085;54.974;73.410;2023-03-01T22:16:38;97875.59;;;4.83;66.31
75505;BME280;64085;54.974;73.410;2023-03-01T22:19:06;97857.06;;;4.69;66.78
75505;BME280;64085;54.974;73.410;2023-03-01T22:21:33;97863.50;;;4.87;65.69
75505;BME280;64085;54.974;73.410;2023-03-01T22:23:59;97875.00;;;5.00;67.82
75505;BME280;64085;54.974;73.410;2023-03-01T22:26:36;97893.47;;;5.51;68.47
75505;BME280;64085;54.974;73.410;2023-03-01T22:29:05;97874.91;;;5.30;66.20
75505;BME280;64085;54.974;73.410;2023-03-01T22:31:31;97830.88;;;4.68;67.17
75505;BME280;64085;54.974;73.410;2023-03-01T22:33:58;97882.13;;;5.08;68.56
75505;BME280;64085;54.974;73.410;2023-03-01T22:36:24;97885.88;;;4.93;67.87
75505;BME280;64085;54.974;73.410;2023-03-01T22:38:51;97898.91;;;4.69;68.29
75505;BME280;64085;54.974;73.410;2023-03-01T22:41:23;97908.03;;;5.18;68.17
75505;BME280;64085;54.974;73.410;2023-03-01T22:43:49;97911.47;;;4.74;69.02
75505;BME280;64085;54.974;73.410;2023-03-01T22:46:17;97904.56;;;4.53;67.87
75505;BME280;64085;54.974;73.410;2023-03-01T22:48:44;97921.56;;;4.06;68.53
75505;BME280;64085;54.974;73.410;2023-03-01T22:51:24;97884.44;;;4.05;69.31
75505;BME280;64085;54.974;73.410;2023-03-01T22:53:50;97903.19;;;4.07;68.93
75505;BME280;64085;54.974;73.410;2023-03-01T22:56:22;97904.91;;;4.18;69.33
75505;BME280;64085;54.974;73.410;2023-03-01T22:58:48;97911.84;;;4.39;68.17
75505;BME280;64085;54.974;73.410;2023-03-01T23:01:19;97914.00;;;4.56;67.46
75505;BME280;64085;54.974;73.410;2023-03-01T23:03:46;97916.75;;;4.56;69.28
75505;BME280;64085;54.974;73.410;2023-03-01T23:06:12;97925.06;;;4.37;68.03
75505;BME280;64085;54.974;73.410;2023-03-01T23:08:38;97895.47;;;3.86;66.56
75505;BME280;64085;54.974;73.410;2023-03-01T23:11:10;97929.91;;;4.17;66.68
75505;BME280;64085;54.974;73.410;2023-03-01T23:13:36;97788.78;;;3.22;66.56
75505;BME280;64085;54.974;73.410;2023-03-01T23:16:02;97904.25;;;3.72;67.04
75505;BME280;64085;54.974;73.410;2023-03-01T23:18:27;97929.78;;;3.83;67.00
75505;BME280;64085;54.974;73.410;2023-03-01T23:20:53;97921.09;;;3.78;65.92
75505;BME280;64085;54.974;73.410;2023-03-01T23:23:19;97949.31;;;4.08;67.26
75505;BME280;64085;54.974;73.410;2023-03-01T23:25:57;97946.94;;;4.07;66.55
75505;BME280;64085;54.974;73.410;2023-03-01T23:28:24;97933.16;;;3.73;64.96
75505;BME280;64085;54.974;73.410;2023-03-01T23:30:59;97905.75;;;3.20;62.20
75505;BME280;64085;54.974;73.410;2023-03-01T23:33:26;97956.16;;;3.26;62.71
75505;BME280;64085;54.974;73.410;2023-03-01T23:35:52;97913.19;;;3.00;63.01
75505;BME280;64085;54.974;73.410;2023-03-01T23:38:19;97958.97;;;3.30;63.77
75505;BME280;64085;54.974;73.410;2023-03-01T23:40:46;97946.75;;;3.70;65.26
75505;BME280;64085;54.974;73.410;2023-03-01T23:43:12;97949.53;;;3.27;63.26
75505;BME280;64085;54.974;73.410;2023-03-01T23:45:38;97956.94;;;3.27;63.77
75505;BME280;64085;54.974;73.410;2023-03-01T23:48:13;97862.44;;;2.76;61.28
75505;BME280;64085;54.974;73.410;2023-03-01T23:50:40;97923.97;;;2.93;62.61